Time;durP1;ratioP1;P1;durP2;ratioP2;P2;SDS_P1;SDS_P2;PMS_P1;PMS_P2;Temp;Humidity;BMP_temperature;BMP_pressure;BME280_temperature;BME280_humidity;BME280_pressure;Samples;Min_cycle;Max_cycle;Signal;HPM_P1;HPM_P2
2021/01/29 00:00:10;;;;;;;;;;;;;;;21.76;42.01;99318.19;3039767;28;115392;-83
2021/01/29 00:01:41;;;;;;;;;;;;;;;21.70;42.40;99312.00;3048464;28;119093;-81
2021/01/29 00:03:15;;;;;;;;;;;;;;;21.68;42.32;99314.31;3042930;28;114125;-79
2021/01/29 00:04:46;;;;;;;;;;;;;;;21.65;42.76;99312.22;3047079;28;114491;-80
2021/01/29 00:06:17;;;;;;;;;;;;;;;21.61;42.76;99314.13;3043632;28;117600;-81
2021/01/29 00:07:48;;;;;;;;;;;;;;;21.55;43.01;99307.09;3053555;23;114266;-80
2021/01/29 00:09:20;;;;;;;;;;;;;;;21.51;42.86;99303.38;3075288;22;116165;-80
2021/01/29 00:10:52;;;;;;;;;;;;;;;21.43;43.42;99310.78;3072359;28;116933;-80
2021/01/29 00:12:24;;;;;;;;;;;;;;;21.36;43.23;99302.09;3068836;28;116801;-81
2021/01/29 00:13:56;;;;;;;;;;;;;;;21.44;43.47;99298.34;3059961;28;116183;-82
2021/01/29 00:15:27;;;;;;;;;;;;;;;21.56;43.31;99306.75;3084483;28;117789;-81
2021/01/29 00:16:58;;;;;;;;;;;;;;;21.63;43.42;99318.19;3055585;28;118308;-83
2021/01/29 00:18:30;;;;;;;;;;;;;;;21.66;43.14;99308.25;3049758;28;115049;-80
2021/01/29 00:20:03;;;;;;;;;;;;;;;21.69;43.16;99310.34;3065768;28;115763;-81
2021/01/29 00:21:34;;;;;;;;;;;;;;;21.68;43.04;99309.53;3049131;28;114917;-79
2021/01/29 00:23:05;;;;;;;;;;;;;;;21.69;42.94;99311.16;3062097;28;114729;-80
2021/01/29 00:24:37;;;;;;;;;;;;;;;21.71;42.93;99294.75;3050909;28;115980;-81
2021/01/29 00:26:08;;;;;;;;;;;;;;;21.70;42.81;99287.50;3082759;28;118062;-83
2021/01/29 00:27:40;;;;;;;;;;;;;;;21.70;42.35;99281.06;3052246;28;116746;-82
2021/01/29 00:29:11;;;;;;;;;;;;;;;21.73;42.74;99272.72;3071563;28;115905;-81
2021/01/29 00:30:44;;;;;;;;;;;;;;;21.71;42.76;99277.88;3057954;28;115000;-80
2021/01/29 00:32:15;;;;;;;;;;;;;;;21.73;42.91;99283.16;3075057;28;115945;-80
2021/01/29 00:33:47;;;;;;;;;;;;;;;21.74;42.89;99274.38;3073212;28;114079;-76
2021/01/29 00:35:19;;;;;;;;;;;;;;;21.73;42.50;99280.34;3085419;28;114157;-81
2021/01/29 00:36:51;;;;;;;;;;;;;;;21.74;42.92;99284.78;3056399;28;114175;-82
2021/01/29 00:38:22;;;;;;;;;;;;;;;21.72;42.83;99285.16;3061002;28;115067;-81
2021/01/29 00:39:53;;;;;;;;;;;;;;;21.72;43.15;99287.97;3064361;28;114172;-81
2021/01/29 00:41:25;;;;;;;;;;;;;;;21.72;43.10;99290.75;3087359;28;113883;-81
2021/01/29 00:42:56;;;;;;;;;;;;;;;21.71;43.11;99286.31;3072028;28;114249;-81
2021/01/29 00:44:27;;;;;;;;;;;;;;;21.72;43.07;99284.31;3076277;28;114525;-82
2021/01/29 00:45:59;;;;;;;;;;;;;;;21.70;43.26;99283.88;3065273;28;114014;-82
2021/01/29 00:47:30;;;;;;;;;;;;;;;21.70;43.24;99283.88;3071696;28;114615;-83
2021/01/29 00:49:01;;;;;;;;;;;;;;;21.68;43.48;99281.41;3070509;28;115281;-82
2021/01/29 00:50:33;;;;;;;;;;;;;;;21.69;43.22;99282.22;3085052;28;114228;-83
2021/01/29 00:52:04;;;;;;;;;;;;;;;21.68;43.27;99287.03;3055999;28;114055;-81
2021/01/29 00:53:35;;;;;;;;;;;;;;;21.67;43.39;99284.56;3083243;28;114197;-83
2021/01/29 00:55:07;;;;;;;;;;;;;;;21.66;43.31;99285.78;3068342;28;117693;-82
2021/01/29 00:56:38;;;;;;;;;;;;;;;21.66;43.39;99289.41;3064164;28;113973;-81
2021/01/29 00:58:09;;;;;;;;;;;;;;;21.65;43.18;99282.13;3063228;28;115063;-82
2021/01/29 00:59:41;;;;;;;;;;;;;;;21.65;43.52;99284.13;3059832;28;116985;-81
2021/01/29 01:01:13;;;;;;;;;;;;;;;21.64;43.20;99285.28;3082450;28;117149;-80
2021/01/29 01:02:46;;;;;;;;;;;;;;;21.63;43.41;99275.22;3053954;28;118447;-82
2021/01/29 01:04:17;;;;;;;;;;;;;;;21.60;43.47;99279.56;3069778;28;115315;-81
2021/01/29 01:05:49;;;;;;;;;;;;;;;21.61;43.47;99280.41;3046669;28;116750;-82
2021/01/29 01:07:20;;;;;;;;;;;;;;;21.61;43.51;99284.03;3066710;28;114186;-80
2021/01/29 01:08:52;;;;;;;;;;;;;;;21.59;43.51;99271.50;3066797;28;115164;-81
2021/01/29 01:10:23;;;;;;;;;;;;;;;21.58;43.47;99276.28;3081434;28;115593;-81
2021/01/29 01:11:55;;;;;;;;;;;;;;;21.58;43.47;99281.91;3065432;28;117779;-81
2021/01/29 01:13:26;;;;;;;;;;;;;;;21.56;43.50;99289.91;3080492;28;115787;-82
2021/01/29 01:14:57;;;;;;;;;;;;;;;21.54;43.50;99277.34;3075704;28;114029;-80
2021/01/29 01:16:28;;;;;;;;;;;;;;;21.53;43.43;99290.59;3058761;28;116233;-80
2021/01/29 01:18:01;;;;;;;;;;;;;;;21.52;43.48;99283.34;3071888;28;116015;-81
2021/01/29 01:19:35;;;;;;;;;;;;;;;21.48;43.39;99288.06;3051293;28;114926;-80
2021/01/29 01:21:06;;;;;;;;;;;;;;;21.47;43.31;99272.34;3070267;28;116585;-81
2021/01/29 01:22:38;;;;;;;;;;;;;;;21.45;43.41;99271.88;3074640;28;116229;-81
2021/01/29 01:24:09;;;;;;;;;;;;;;;21.45;43.24;99277.50;3082391;28;115114;-81
2021/01/29 01:25:40;;;;;;;;;;;;;;;21.45;43.42;99274.69;3054022;28;115832;-80
2021/01/29 01:27:13;;;;;;;;;;;;;;;21.43;43.57;99270.63;3060533;28;118020;-81
2021/01/29 01:28:45;;;;;;;;;;;;;;;21.42;43.39;99271.78;3081845;28;117266;-80
2021/01/29 01:30:18;;;;;;;;;;;;;;;21.42;43.18;99271.78;3056003;28;114458;-81
2021/01/29 01:31:49;;;;;;;;;;;;;;;21.40;43.40;99279.72;3066736;28;117307;-81
2021/01/29 01:33:21;;;;;;;;;;;;;;;21.37;43.22;99277.66;3053257;28;115608;-80
2021/01/29 01:34:52;;;;;;;;;;;;;;;21.37;43.31;99278.47;3076615;28;118667;-81
2021/01/29 01:36:24;;;;;;;;;;;;;;;21.35;43.31;99280.00;3068334;28;118230;-81
2021/01/29 01:37:55;;;;;;;;;;;;;;;21.35;43.39;99288.44;3087923;28;117019;-80
2021/01/29 01:39:28;;;;;;;;;;;;;;;21.32;43.52;99275.06;3066107;28;114493;-81
2021/01/29 01:40:59;;;;;;;;;;;;;;;21.31;43.51;99288.31;3071641;28;113835;-81
2021/01/29 01:42:30;;;;;;;;;;;;;;;21.29;43.57;99297.09;3063469;28;114180;-80
2021/01/29 01:44:20;;;;;;;;;;;;;;;21.29;43.49;99290.66;3064037;28;114238;-81
2021/01/29 01:46:01;;;;;;;;;;;;;;;21.26;43.57;99303.41;3063761;28;114527;-81
2021/01/29 01:47:35;;;;;;;;;;;;;;;21.24;43.43;99291.72;3083724;28;115502;-81
2021/01/29 01:49:09;;;;;;;;;;;;;;;21.21;43.63;99303.66;3067269;28;113885;-80
2021/01/29 01:50:42;;;;;;;;;;;;;;;21.21;43.31;99302.84;3064209;28;113854;-81
2021/01/29 01:52:21;;;;;;;;;;;;;;;21.20;43.39;99295.59;3084194;28;114071;-80
2021/01/29 01:53:53;;;;;;;;;;;;;;;21.19;43.69;99308.00;3078393;28;114063;-81
2021/01/29 01:55:29;;;;;;;;;;;;;;;21.19;43.58;99305.19;3064042;28;114110;-80
2021/01/29 01:57:01;;;;;;;;;;;;;;;21.16;43.62;99292.69;3075350;28;114206;-80
2021/01/29 01:58:33;;;;;;;;;;;;;;;21.17;43.49;99307.50;3051800;28;114269;-80
2021/01/29 02:00:07;;;;;;;;;;;;;;;21.17;43.40;99304.69;3083043;28;114338;-80
2021/01/29 02:01:38;;;;;;;;;;;;;;;21.16;43.67;99319.94;3068447;28;115246;-80
2021/01/29 02:03:14;;;;;;;;;;;;;;;21.16;43.77;99320.75;3071848;28;115927;-83
2021/01/29 02:04:46;;;;;;;;;;;;;;;21.13;43.49;99312.19;3042796;28;115151;-83
2021/01/29 02:06:18;;;;;;;;;;;;;;;21.14;43.51;99311.03;3066054;28;117256;-82
2021/01/29 02:07:52;;;;;;;;;;;;;;;21.12;43.61;99314.16;3063466;28;114183;-82
2021/01/29 02:09:24;;;;;;;;;;;;;;;21.12;43.76;99313.38;3071554;28;116889;-82
2021/01/29 02:10:57;;;;;;;;;;;;;;;21.11;43.37;99315.34;3066003;28;117172;-81
2021/01/29 02:12:28;;;;;;;;;;;;;;;21.08;43.82;99313.22;3071663;28;115139;-81
2021/01/29 02:14:00;;;;;;;;;;;;;;;21.07;43.49;99308.81;3074316;28;115230;-80
2021/01/29 02:15:33;;;;;;;;;;;;;;;21.08;43.41;99315.22;3066169;28;114344;-81
2021/01/29 02:17:12;;;;;;;;;;;;;;;21.07;43.67;99330.44;3075252;28;115263;-80
2021/01/29 02:18:52;;;;;;;;;;;;;;;21.05;43.67;99325.16;3057836;28;115438;-81
2021/01/29 02:20:25;;;;;;;;;;;;;;;21.05;43.48;99321.53;3078730;28;115851;-81
2021/01/29 02:21:57;;;;;;;;;;;;;;;21.06;43.55;99323.19;3060275;28;115587;-81
2021/01/29 02:23:29;;;;;;;;;;;;;;;21.05;43.40;99318.72;3058103;28;115827;-79
2021/01/29 02:25:16;;;;;;;;;;;;;;;21.02;43.67;99325.06;3071840;28;116706;-81
2021/01/29 02:26:57;;;;;;;;;;;;;;;21.00;43.46;99325.41;3073495;28;115724;-83
2021/01/29 02:28:28;;;;;;;;;;;;;;;21.02;43.44;99330.69;3051254;28;116290;-81
2021/01/29 02:30:09;;;;;;;;;;;;;;;20.99;43.70;99331.34;3074294;28;114408;-80
2021/01/29 02:31:50;;;;;;;;;;;;;;;20.99;43.61;99331.34;3053554;28;115903;-80
2021/01/29 02:33:24;;;;;;;;;;;;;;;20.97;43.38;99328.09;3061924;28;116463;-80
2021/01/29 02:34:56;;;;;;;;;;;;;;;20.97;43.31;99328.91;3086836;28;116059;-81
2021/01/29 02:36:28;;;;;;;;;;;;;;;20.97;43.21;99339.34;3062396;28;116015;-80
2021/01/29 02:38:09;;;;;;;;;;;;;;;20.97;43.47;99340.16;3083246;28;116606;-81
2021/01/29 02:39:51;;;;;;;;;;;;;;;20.96;43.33;99330.09;3066686;28;117794;-80
2021/01/29 02:41:24;;;;;;;;;;;;;;;20.95;43.45;99336.88;3071065;28;115963;-80
2021/01/29 02:43:05;;;;;;;;;;;;;;;20.94;43.33;99342.84;3054724;28;117049;-81
2021/01/29 02:44:46;;;;;;;;;;;;;;;20.92;43.26;99339.56;3062760;28;115565;-81
2021/01/29 02:46:27;;;;;;;;;;;;;;;20.91;43.45;99340.72;3076372;28;115338;-81
2021/01/29 02:48:08;;;;;;;;;;;;;;;20.92;43.42;99345.16;3064904;28;114131;-80
2021/01/29 02:49:49;;;;;;;;;;;;;;;20.89;43.58;99338.28;3082748;28;114119;-81
2021/01/29 02:51:26;;;;;;;;;;;;;;;20.88;43.45;99339.44;3063267;28;114400;-81
2021/01/29 02:53:07;;;;;;;;;;;;;;;20.88;43.84;99355.47;3060981;28;113880;-81
2021/01/29 02:54:44;;;;;;;;;;;;;;;20.88;43.45;99358.28;3071433;28;114343;-83
2021/01/29 02:56:25;;;;;;;;;;;;;;;20.85;43.57;99349.38;3066548;28;114466;-81
2021/01/29 02:58:06;;;;;;;;;;;;;;;20.84;43.91;99353.38;3082884;28;117253;-81
2021/01/29 02:59:48;;;;;;;;;;;;;;;20.85;43.65;99362.59;3051471;28;113936;-81
2021/01/29 03:01:29;;;;;;;;;;;;;;;20.84;43.86;99358.97;3082468;28;114013;-82
2021/01/29 03:03:04;;;;;;;;;;;;;;;20.82;43.93;99358.50;3079526;28;113738;-80
2021/01/29 03:04:43;;;;;;;;;;;;;;;20.83;43.55;99360.16;3075359;28;114143;-80
2021/01/29 03:06:14;;;;;;;;;;;;;;;20.81;44.07;99359.66;3069147;28;115356;-82
2021/01/29 03:07:55;;;;;;;;;;;;;;;20.81;43.81;99364.44;3062747;28;114215;-80
2021/01/29 03:09:31;;;;;;;;;;;;;;;20.80;43.92;99363.63;3089394;28;113686;-81
2021/01/29 03:11:02;;;;;;;;;;;;;;;20.79;44.03;99362.00;3059190;28;115492;-80
2021/01/29 03:12:39;;;;;;;;;;;;;;;20.79;43.96;99362.00;3071916;28;114032;-82
2021/01/29 03:14:15;;;;;;;;;;;;;;;20.78;44.29;99376.38;3054480;28;117144;-81
2021/01/29 03:15:52;;;;;;;;;;;;;;;20.76;44.51;99373.09;3058570;28;117029;-81
2021/01/29 03:17:26;;;;;;;;;;;;;;;20.78;44.12;99370.78;3064480;28;114218;-81
2021/01/29 03:19:02;;;;;;;;;;;;;;;20.76;44.12;99373.91;3072044;28;115283;-82
2021/01/29 03:20:36;;;;;;;;;;;;;;;20.74;44.46;99372.66;3053650;28;115152;-81
2021/01/29 03:22:12;;;;;;;;;;;;;;;20.75;44.15;99374.28;3057460;28;115437;-82
2021/01/29 03:23:45;;;;;;;;;;;;;;;20.74;44.34;99375.44;3055423;28;115154;-81
2021/01/29 03:25:20;;;;;;;;;;;;;;;20.74;44.04;99367.03;3063393;28;115145;-81
2021/01/29 03:26:54;;;;;;;;;;;;;;;20.72;44.22;99372.97;3069785;28;114378;-81
2021/01/29 03:28:28;;;;;;;;;;;;;;;20.70;44.29;99363.28;3086407;28;117444;-80
2021/01/29 03:30:01;;;;;;;;;;;;;;;20.70;44.03;99380.13;3070354;28;116053;-81
2021/01/29 03:31:33;;;;;;;;;;;;;;;20.71;44.09;99373.34;3079076;28;115644;-79
2021/01/29 03:33:07;;;;;;;;;;;;;;;20.69;44.29;99368.06;3066372;28;116421;-81
2021/01/29 03:34:44;;;;;;;;;;;;;;;20.69;44.17;99373.69;3076416;28;115650;-82
2021/01/29 03:36:19;;;;;;;;;;;;;;;20.67;44.00;99370.41;3074314;28;115812;-81
2021/01/29 03:37:59;;;;;;;;;;;;;;;20.67;44.03;99370.41;3063367;28;115834;-81
2021/01/29 03:39:34;;;;;;;;;;;;;;;20.67;44.08;99370.41;3063124;28;116038;-81
2021/01/29 03:41:09;;;;;;;;;;;;;;;20.68;44.26;99376.84;3075102;28;115760;-81
2021/01/29 03:42:46;;;;;;;;;;;;;;;20.67;44.05;99383.63;3075930;28;114576;-81
2021/01/29 03:44:22;;;;;;;;;;;;;;;20.65;44.35;99378.34;3083583;28;116496;-81
2021/01/29 03:46:03;;;;;;;;;;;;;;;20.65;44.06;99369.94;3078139;28;114963;-79
2021/01/29 03:47:35;;;;;;;;;;;;;;;20.62;44.16;99373.44;3078200;28;116472;-79
2021/01/29 03:49:08;;;;;;;;;;;;;;;20.63;44.11;99372.25;3068608;28;114911;-81
2021/01/29 03:50:40;;;;;;;;;;;;;;;20.61;44.22;99371.81;3072773;28;113905;-80
2021/01/29 03:52:16;;;;;;;;;;;;;;;20.62;44.28;99375.44;3074292;28;115670;-80
2021/01/29 03:53:56;;;;;;;;;;;;;;;20.61;44.28;99380.22;3056419;28;116213;-82
2021/01/29 03:55:27;;;;;;;;;;;;;;;20.60;44.30;99378.56;3072042;28;114100;-83
2021/01/29 03:57:08;;;;;;;;;;;;;;;20.57;44.25;99382.09;3065019;28;114284;-81
2021/01/29 03:58:45;;;;;;;;;;;;;;;20.58;44.42;99377.31;3086646;28;114022;-80
2021/01/29 04:00:26;;;;;;;;;;;;;;;20.58;44.27;99372.47;3069104;28;114134;-81
2021/01/29 04:02:06;;;;;;;;;;;;;;;20.56;44.11;99372.03;3074385;28;113942;-81
2021/01/29 04:03:38;;;;;;;;;;;;;;;20.54;44.33;99374.34;3064216;28;114091;-82
2021/01/29 04:05:13;;;;;;;;;;;;;;;20.53;44.23;99374.72;3076852;28;113752;-82
2021/01/29 04:06:51;;;;;;;;;;;;;;;20.53;44.39;99369.09;3068594;28;114210;-82
2021/01/29 04:08:28;;;;;;;;;;;;;;;20.51;44.20;99366.63;3076829;28;115286;-81
2021/01/29 04:10:02;;;;;;;;;;;;;;;20.51;44.38;99363.81;3066023;28;114114;-82
2021/01/29 04:11:39;;;;;;;;;;;;;;;20.50;44.28;99366.97;3084366;28;114182;-82
2021/01/29 04:13:14;;;;;;;;;;;;;;;20.48;44.39;99377.72;3057991;28;114421;-81
2021/01/29 04:14:49;;;;;;;;;;;;;;;20.47;44.49;99378.91;3081154;28;113859;-82
2021/01/29 04:16:23;;;;;;;;;;;;;;;20.47;44.49;99376.91;3072691;28;113761;-82
2021/01/29 04:18:09;;;;;;;;;;;;;;;20.46;44.56;99364.03;3072822;28;116520;-83
2021/01/29 04:19:43;;;;;;;;;;;;;;;20.46;44.57;99374.44;3064877;28;114264;-82
2021/01/29 04:21:24;;;;;;;;;;;;;;;20.45;44.77;99367.19;3073744;28;115161;-82
2021/01/29 04:22:57;;;;;;;;;;;;;;;20.44;44.71;99372.00;3055231;28;115174;-81
2021/01/29 04:24:32;;;;;;;;;;;;;;;20.43;44.65;99367.56;3076831;28;117183;-83
2021/01/29 04:26:08;;;;;;;;;;;;;;;20.43;44.65;99361.94;3080009;28;115196;-81
2021/01/29 04:27:42;;;;;;;;;;;;;;;20.43;44.62;99370.34;3077205;28;114054;-83
2021/01/29 04:29:15;;;;;;;;;;;;;;;20.41;44.93;99370.69;3048958;28;116392;-81
2021/01/29 04:30:49;;;;;;;;;;;;;;;20.41;44.62;99372.66;3074770;28;115123;-82
2021/01/29 04:32:23;;;;;;;;;;;;;;;20.41;44.68;99364.25;3067998;28;114535;-83
2021/01/29 04:33:58;;;;;;;;;;;;;;;20.39;44.60;99361.81;3085047;28;117463;-82
2021/01/29 04:35:30;;;;;;;;;;;;;;;20.39;44.61;99355.38;3060760;28;117253;-81
2021/01/29 04:37:04;;;;;;;;;;;;;;;20.39;44.63;99356.22;3067311;28;114526;-80
2021/01/29 04:38:35;;;;;;;;;;;;;;;20.39;44.96;99359.00;3055607;28;115558;-80
2021/01/29 04:40:24;;;;;;;;;;;;;;;20.39;44.86;99361.00;3055455;28;115485;-81
2021/01/29 04:42:02;;;;;;;;;;;;;;;20.39;44.88;99361.00;3086089;28;115922;-80
2021/01/29 04:43:36;;;;;;;;;;;;;;;20.39;44.95;99356.22;3066737;28;115864;-80
2021/01/29 04:45:17;;;;;;;;;;;;;;;20.39;44.86;99361.00;3083936;28;117923;-80
2021/01/29 04:46:56;;;;;;;;;;;;;;;20.39;44.88;99363.81;3069118;28;115270;-80
2021/01/29 04:48:35;;;;;;;;;;;;;;;20.37;45.23;99366.94;3051546;28;116849;-82
2021/01/29 04:50:20;;;;;;;;;;;;;;;20.39;44.86;99369.41;3083209;28;116307;-81
2021/01/29 04:52:01;;;;;;;;;;;;;;;20.39;45.17;99366.59;3079273;28;115844;-81
2021/01/29 04:53:41;;;;;;;;;;;;;;;20.36;44.93;99362.50;3061006;28;117979;-81
2021/01/29 04:55:22;;;;;;;;;;;;;;;20.35;44.93;99362.84;3070286;28;114654;-81
2021/01/29 04:57:03;;;;;;;;;;;;;;;20.34;45.02;99369.63;3066623;28;119287;-80
2021/01/29 04:58:37;;;;;;;;;;;;;;;20.33;45.01;99367.97;3051022;28;116267;-80
2021/01/29 05:00:08;;;;;;;;;;;;;;;20.33;44.95;99376.41;3081813;28;116068;-80
2021/01/29 05:01:47;;;;;;;;;;;;;;;20.30;44.68;99365.88;3057863;28;114726;-81
2021/01/29 05:03:26;;;;;;;;;;;;;;;20.28;44.90;99363.38;3081542;28;118783;-80
2021/01/29 05:05:07;;;;;;;;;;;;;;;20.30;44.82;99372.31;3067267;28;114184;-80
2021/01/29 05:06:47;;;;;;;;;;;;;;;20.25;44.71;99366.06;3072668;28;115023;-80
2021/01/29 05:08:27;;;;;;;;;;;;;;;20.27;44.76;99372.13;3054937;28;113638;-82
2021/01/29 05:10:08;;;;;;;;;;;;;;;20.27;44.85;99369.31;3080625;28;114148;-81
2021/01/29 05:11:56;;;;;;;;;;;;;;;20.27;44.93;99372.13;3065743;28;114059;-82
2021/01/29 05:13:28;;;;;;;;;;;;;;;20.25;44.85;99363.25;3083672;28;114578;-82
2021/01/29 05:15:06;;;;;;;;;;;;;;;20.23;44.61;99355.16;3055570;28;117154;-80
2021/01/29 05:16:47;;;;;;;;;;;;;;;20.22;44.86;99364.75;3079585;28;114184;-80
2021/01/29 05:18:22;;;;;;;;;;;;;;;20.22;44.55;99363.91;3055354;28;114115;-80
2021/01/29 05:19:53;;;;;;;;;;;;;;;20.21;44.59;99367.91;3060565;28;114120;-81
2021/01/29 05:21:25;;;;;;;;;;;;;;;20.20;44.51;99355.06;3065684;28;114219;-82
2021/01/29 05:22:57;;;;;;;;;;;;;;;20.20;44.70;99360.66;3064574;28;114002;-81
2021/01/29 05:24:36;;;;;;;;;;;;;;;20.18;44.56;99363.78;3064324;28;113715;-81
2021/01/29 05:26:17;;;;;;;;;;;;;;;20.17;44.68;99373.38;3067680;28;114017;-80
2021/01/29 05:27:58;;;;;;;;;;;;;;;20.17;44.33;99355.75;3061842;28;117887;-83
2021/01/29 05:29:39;;;;;;;;;;;;;;;20.18;44.60;99362.97;3054426;28;113948;-82
2021/01/29 05:31:20;;;;;;;;;;;;;;;20.22;45.27;99361.13;3053992;28;114059;-82
2021/01/29 05:33:01;;;;;;;;;;;;;;;20.27;44.79;99353.31;3056488;28;115062;-81
2021/01/29 05:34:41;;;;;;;;;;;;;;;20.31;45.17;99370.28;3085014;28;117949;-82
2021/01/29 05:36:19;;;;;;;;;;;;;;;20.33;45.19;99356.75;3062376;28;117186;-81
2021/01/29 05:38:00;;;;;;;;;;;;;;;20.36;45.17;99356.06;3065764;28;114362;-82
2021/01/29 05:39:39;;;;;;;;;;;;;;;20.39;45.14;99364.63;3051004;28;115600;-81
2021/01/29 05:41:19;;;;;;;;;;;;;;;20.45;44.85;99358.75;3068164;28;114316;-81
2021/01/29 05:42:59;;;;;;;;;;;;;;;20.48;45.04;99360.91;3063602;28;115786;-82
2021/01/29 05:44:38;;;;;;;;;;;;;;;20.51;45.08;99357.38;3062163;28;113981;-81
2021/01/29 05:46:19;;;;;;;;;;;;;;;20.55;44.93;99353.53;3082190;28;115283;-81
2021/01/29 05:47:57;;;;;;;;;;;;;;;20.60;45.31;99360.91;3054690;28;114690;-82
2021/01/29 05:49:38;;;;;;;;;;;;;;;20.64;45.42;99357.06;3086294;28;115261;-82
2021/01/29 05:51:16;;;;;;;;;;;;;;;20.69;45.45;99356.84;3063171;28;115293;-82
2021/01/29 05:52:47;;;;;;;;;;;;;;;20.74;45.10;99367.03;3073792;28;113858;-81
2021/01/29 05:54:29;;;;;;;;;;;;;;;20.79;45.09;99355.56;3054762;28;114672;-81
2021/01/29 05:56:09;;;;;;;;;;;;;;;20.83;45.28;99362.94;3061522;28;117683;-81
2021/01/29 05:57:50;;;;;;;;;;;;;;;20.89;45.17;99360.75;3072945;28;115449;-81
2021/01/29 05:59:21;;;;;;;;;;;;;;;20.96;45.14;99360.16;3062116;28;115073;-83
2021/01/29 06:00:55;;;;;;;;;;;;;;;21.01;44.85;99355.13;3087687;28;115890;-82
2021/01/29 06:02:28;;;;;;;;;;;;;;;21.06;44.71;99354.91;3088134;28;115413;-82
2021/01/29 06:04:06;;;;;;;;;;;;;;;21.12;44.84;99356.28;3068124;28;118007;-81
2021/01/29 06:05:38;;;;;;;;;;;;;;;21.17;44.99;99352.44;3075988;28;116203;-81
2021/01/29 06:07:09;;;;;;;;;;;;;;;21.22;45.07;99355.84;3052486;28;115666;-80
2021/01/29 06:08:50;;;;;;;;;;;;;;;21.27;44.67;99360.41;3059848;28;116141;-81
2021/01/29 06:10:31;;;;;;;;;;;;;;;21.32;44.29;99348.94;3081072;28;116671;-82
2021/01/29 06:12:05;;;;;;;;;;;;;;;21.37;44.47;99345.91;3065950;28;116032;-81
2021/01/29 06:13:46;;;;;;;;;;;;;;;21.43;44.20;99352.91;3083611;28;114028;-82
2021/01/29 06:15:28;;;;;;;;;;;;;;;21.48;43.99;99349.06;3066690;28;114049;-80
2021/01/29 06:17:09;;;;;;;;;;;;;;;21.53;43.94;99354.44;3084409;28;114414;-81
2021/01/29 06:18:55;;;;;;;;;;;;;;;21.58;43.81;99343.75;3054000;28;114145;-82
2021/01/29 06:20:50;;;;;;;;;;;;;;;21.62;44.47;99343.88;3088559;28;114187;-82
2021/01/29 06:22:33;;;;;;;;;;;;;;;21.67;43.80;99349.22;3051695;28;114064;-81
2021/01/29 06:24:17;;;;;;;;;;;;;;;21.70;43.82;99349.34;3082165;28;114112;-81
2021/01/29 06:25:49;;;;;;;;;;;;;;;21.76;43.44;99344.28;3065804;28;114035;-81
2021/01/29 06:27:30;;;;;;;;;;;;;;;21.80;43.24;99352.84;3071248;28;114224;-80
2021/01/29 06:29:11;;;;;;;;;;;;;;;21.85;43.75;99346.97;3068511;28;114115;-81
2021/01/29 06:30:52;;;;;;;;;;;;;;;21.91;43.14;99342.72;3075093;28;114042;-80
2021/01/29 06:32:33;;;;;;;;;;;;;;;21.94;43.06;99342.06;3051001;28;114032;-81
2021/01/29 06:34:10;;;;;;;;;;;;;;;21.98;43.06;99340.97;3074149;28;114260;-81
2021/01/29 06:35:47;;;;;;;;;;;;;;;22.02;43.03;99338.25;3088230;28;114022;-80
2021/01/29 06:37:28;;;;;;;;;;;;;;;22.06;42.71;99339.19;3057691;28;113980;-81
2021/01/29 06:39:08;;;;;;;;;;;;;;;22.09;42.92;99336.47;3058265;28;117081;-79
2021/01/29 06:40:48;;;;;;;;;;;;;;;22.13;42.51;99333.75;3084154;28;114266;-79
2021/01/29 06:42:22;;;;;;;;;;;;;;;22.15;42.36;99323.78;3077513;28;115788;-80
2021/01/29 06:44:03;;;;;;;;;;;;;;;22.18;42.41;99327.88;3087301;28;115349;-81
2021/01/29 06:45:51;;;;;;;;;;;;;;;22.22;42.26;99327.97;3049434;28;117234;-81
2021/01/29 06:47:29;;;;;;;;;;;;;;;22.27;42.32;99342.59;3081795;28;114445;-80
2021/01/29 06:49:09;;;;;;;;;;;;;;;22.29;42.12;99334.63;3054285;28;115150;-79
2021/01/29 06:50:56;;;;;;;;;;;;;;;22.33;42.06;99326.28;3076552;28;115136;-81
2021/01/29 06:52:32;;;;;;;;;;;;;;;22.37;42.14;99330.81;3058685;28;114420;-81
2021/01/29 06:54:13;;;;;;;;;;;;;;;22.42;41.97;99336.19;3083872;28;115652;-80
2021/01/29 06:55:54;;;;;;;;;;;;;;;22.44;42.58;99330.22;3057661;28;115187;-81
2021/01/29 06:57:36;;;;;;;;;;;;;;;22.47;42.19;99337.94;3072738;28;115478;-80
2021/01/29 06:59:08;;;;;;;;;;;;;;;22.48;41.98;99326.31;3053269;28;115155;-80
2021/01/29 07:00:48;;;;;;;;;;;;;;;22.52;42.20;99332.03;3068780;28;115356;-80
2021/01/29 07:02:28;;;;;;;;;;;;;;;22.54;41.65;99324.03;3074428;28;115362;-82
2021/01/29 07:04:03;;;;;;;;;;;;;;;22.57;41.77;99324.16;3063614;28;115699;-81
2021/01/29 07:05:35;;;;;;;;;;;;;;;22.61;41.91;99327.06;3073715;28;115673;-81
2021/01/29 07:07:06;;;;;;;;;;;;;;;22.64;41.82;99331.94;3067484;28;114460;-81
2021/01/29 07:08:45;;;;;;;;;;;;;;;22.66;41.91;99321.16;3083149;28;116483;-81
2021/01/29 07:10:26;;;;;;;;;;;;;;;22.70;41.83;99321.28;3050969;28;116001;-82
2021/01/29 07:12:08;;;;;;;;;;;;;;;22.73;41.69;99326.16;3060693;28;114835;-81
2021/01/29 07:13:48;;;;;;;;;;;;;;;22.75;41.41;99323.81;3072566;28;116280;-82
2021/01/29 07:15:28;;;;;;;;;;;;;;;22.78;41.39;99329.53;3077651;28;115822;-82
2021/01/29 07:17:12;;;;;;;;;;;;;;;22.80;41.28;99332.81;3087902;28;116213;-81
2021/01/29 07:18:54;;;;;;;;;;;;;;;22.83;41.10;99328.44;3063841;28;115997;-82
2021/01/29 07:20:35;;;;;;;;;;;;;;;22.85;41.00;99331.72;3060285;28;115897;-82
2021/01/29 07:22:22;;;;;;;;;;;;;;;;;;3089396;28;115913;-81
2021/01/29 07:23:54;;;;;;;;;;;;;;;22.88;41.22;99340.25;3057186;28;145856;-81
2021/01/29 07:25:35;;;;;;;;;;;;;;;22.89;41.64;99336.28;3081902;28;114314;-81
2021/01/29 07:27:16;;;;;;;;;;;;;;;22.91;41.58;99336.72;3065032;28;113837;-81
2021/01/29 07:28:57;;;;;;;;;;;;;;;22.92;41.35;99344.00;3086245;28;114018;-83
2021/01/29 07:30:37;;;;;;;;;;;;;;;22.93;41.20;99342.00;3059887;28;114160;-85
2021/01/29 07:32:17;;;;;;;;;;;;;;;22.94;40.92;99340.81;3071366;28;114203;-82
2021/01/29 07:33:55;;;;;;;;;;;;;;;22.94;41.16;99335.19;3089688;28;113967;-85
2021/01/29 07:35:26;;;;;;;;;;;;;;;22.95;40.92;99350.88;3066317;28;115168;-85
2021/01/29 07:37:07;;;;;;;;;;;;;;;22.95;40.99;99339.59;3077290;28;113908;-85
2021/01/29 07:38:47;;;;;;;;;;;;;;;22.95;40.82;99339.59;3057653;28;114797;-84
2021/01/29 07:40:31;;;;;;;;;;;;;;;22.94;40.74;99333.16;3071141;28;114377;-85
2021/01/29 07:42:12;;;;;;;;;;;;;;;22.95;40.97;99342.44;3050769;28;114195;-86
2021/01/29 07:43:54;;;;;;;;;;;;;;;22.94;40.73;99332.38;3069574;28;113860;-82
2021/01/29 07:45:35;;;;;;;;;;;;;;;22.95;40.79;99333.97;3063523;28;114554;-83
2021/01/29 07:47:15;;;;;;;;;;;;;;;22.93;40.82;99334.38;3080745;28;114075;-86
2021/01/29 07:48:56;;;;;;;;;;;;;;;22.92;40.84;99338.34;3068907;28;115315;-83
2021/01/29 07:50:36;;;;;;;;;;;;;;;22.92;41.03;99327.09;3065618;28;117315;-83
2021/01/29 07:52:15;;;;;;;;;;;;;;;22.91;41.12;99339.53;3074741;28;116808;-83
2021/01/29 07:53:59;;;;;;;;;;;;;;;22.90;40.98;99334.25;3056230;28;118011;-83
2021/01/29 07:55:50;;;;;;;;;;;;;;;22.90;41.14;99337.88;3058833;28;115821;-84
2021/01/29 07:57:31;;;;;;;;;;;;;;;22.91;40.91;99342.34;3085817;28;115419;-80
2021/01/29 07:59:12;;;;;;;;;;;;;;;22.91;41.28;99342.34;3053228;28;115057;-81
2021/01/29 08:00:52;;;;;;;;;;;;;;;22.94;41.01;99343.63;3083694;28;115534;-83
2021/01/29 08:02:35;;;;;;;;;;;;;;;22.96;41.34;99344.88;3068351;28;117400;-83
2021/01/29 08:04:13;;;;;;;;;;;;;;;23.00;41.39;99350.59;3087454;28;117441;-81
2021/01/29 08:05:51;;;;;;;;;;;;;;;23.02;41.21;99351.06;3056190;28;114167;-82
2021/01/29 08:07:29;;;;;;;;;;;;;;;23.04;41.20;99357.16;3076090;28;114204;-82
2021/01/29 08:09:04;;;;;;;;;;;;;;;23.06;41.12;99349.16;3052372;28;114439;-83
2021/01/29 08:10:36;;;;;;;;;;;;;;;23.08;41.04;99357.25;3082783;28;115210;-83
2021/01/29 08:12:11;;;;;;;;;;;;;;;23.10;41.43;99358.50;3071934;28;116834;-82
2021/01/29 08:13:48;;;;;;;;;;;;;;;23.10;41.29;99354.88;3073680;28;118409;-81
2021/01/29 08:15:19;;;;;;;;;;;;;;;23.12;41.07;99352.53;3055225;28;115817;-81